createdAt,value
2022-12-22T00:02:22.477Z,25.35
2022-12-22T00:05:16.832Z,25.32
2022-12-22T00:08:04.399Z,25.32
2022-12-22T00:10:51.997Z,25.36
2022-12-22T00:13:39.656Z,25.28
2022-12-22T00:16:32.329Z,25.30
2022-12-22T00:19:21.511Z,25.31
2022-12-22T00:22:08.951Z,25.34
2022-12-22T00:24:57.011Z,25.33
2022-12-22T00:27:47.721Z,25.29
2022-12-22T00:30:36.437Z,25.29
2022-12-22T00:33:24.371Z,25.24
2022-12-22T00:36:11.941Z,25.27
2022-12-22T00:38:59.548Z,25.27
2022-12-22T00:41:47.124Z,25.24
2022-12-22T00:44:35.095Z,25.26
2022-12-22T00:47:29.363Z,25.23
2022-12-22T00:50:17.407Z,25.25
2022-12-22T00:53:05.081Z,25.26
2022-12-22T00:55:53.243Z,25.23
2022-12-22T00:58:40.998Z,25.25
2022-12-22T01:01:30.966Z,25.26
2022-12-22T01:04:18.715Z,25.23
2022-12-22T01:07:07.308Z,25.23
2022-12-22T01:09:56.517Z,25.26
2022-12-22T01:12:45.119Z,25.24
2022-12-22T01:15:37.104Z,25.28
2022-12-22T01:18:24.944Z,25.26
2022-12-22T01:21:12.693Z,25.31
2022-12-22T01:24:00.380Z,25.25
2022-12-22T01:26:48.652Z,25.29
2022-12-22T01:29:36.530Z,25.26
2022-12-22T01:32:24.901Z,25.27
2022-12-22T01:35:12.614Z,25.28
2022-12-22T01:38:00.677Z,25.31
2022-12-22T01:40:48.278Z,25.30
2022-12-22T01:43:40.937Z,25.37
2022-12-22T01:46:43.640Z,25.35
2022-12-22T01:49:37.191Z,25.38
2022-12-22T01:52:43.079Z,25.34
2022-12-22T01:55:32.905Z,25.39
2022-12-22T01:58:20.811Z,25.34
2022-12-22T02:01:08.622Z,25.42
2022-12-22T02:03:57.635Z,25.46
2022-12-22T02:07:00.045Z,25.40
2022-12-22T02:10:10.974Z,25.39
2022-12-22T02:13:40.197Z,25.38
2022-12-22T02:16:48.764Z,25.34
2022-12-22T02:19:53.866Z,25.31
2022-12-22T02:22:44.511Z,25.37
2022-12-22T02:25:41.515Z,25.43
2022-12-22T02:28:29.683Z,25.43
2022-12-22T02:31:18.575Z,25.36
2022-12-22T02:34:06.644Z,25.50
2022-12-22T02:37:03.286Z,25.44
2022-12-22T02:39:59.913Z,25.29
2022-12-22T02:43:08.468Z,25.29
2022-12-22T02:46:09.754Z,25.34
2022-12-22T02:49:16.813Z,25.38
2022-12-22T02:52:07.027Z,25.44
2022-12-22T02:54:55.894Z,25.47
2022-12-22T02:57:48.942Z,25.52
2022-12-22T03:00:37.378Z,25.58
2022-12-22T03:03:27.274Z,25.63
2022-12-22T03:06:15.448Z,25.64
2022-12-22T03:09:03.065Z,25.70
2022-12-22T03:11:51.015Z,25.72
2022-12-22T03:14:39.084Z,25.76
2022-12-22T03:17:27.364Z,25.77
2022-12-22T03:20:15.319Z,25.82
2022-12-22T03:23:03.276Z,25.84
2022-12-22T03:25:53.450Z,25.85
2022-12-22T03:28:25.155Z,25.90
2022-12-22T03:31:02.445Z,25.92
2022-12-22T03:33:33.263Z,25.93
2022-12-22T03:36:04.033Z,25.99
2022-12-22T03:38:34.993Z,26.13
2022-12-22T03:41:05.311Z,26.23
2022-12-22T03:43:53.304Z,26.27
2022-12-22T03:46:32.657Z,26.30
2022-12-22T03:49:12.846Z,26.30
2022-12-22T03:51:48.625Z,26.30
2022-12-22T03:54:23.395Z,26.23
2022-12-22T03:56:54.013Z,26.21
2022-12-22T03:59:24.706Z,26.19
2022-12-22T04:01:55.604Z,26.15
2022-12-22T04:04:27.584Z,26.16
2022-12-22T04:06:57.741Z,26.22
2022-12-22T04:09:28.458Z,26.20
2022-12-22T04:12:16.319Z,26.16
2022-12-22T04:14:46.961Z,26.12
2022-12-22T04:17:17.584Z,26.09
2022-12-22T04:19:48.013Z,26.09
2022-12-22T04:22:18.303Z,26.07
2022-12-22T04:24:48.834Z,26.06
2022-12-22T04:27:20.757Z,26.06
2022-12-22T04:29:51.058Z,26.04
2022-12-22T04:32:21.373Z,26.03
2022-12-22T04:34:51.836Z,26.03
2022-12-22T04:37:22.579Z,26.02
2022-12-22T04:39:53.301Z,26.02
2022-12-22T04:42:25.143Z,26.02
2022-12-22T04:44:55.639Z,26.00
2022-12-22T04:47:25.709Z,25.98
2022-12-22T04:49:57.361Z,25.99
2022-12-22T04:52:27.624Z,25.97
2022-12-22T04:54:57.818Z,25.96
2022-12-22T04:57:28.841Z,25.96
2022-12-22T05:00:03.670Z,25.95
2022-12-22T05:02:34.226Z,25.96
2022-12-22T05:05:04.675Z,25.93
2022-12-22T05:07:34.769Z,25.92
2022-12-22T05:10:06.664Z,25.93
2022-12-22T05:12:54.372Z,25.86
2022-12-22T05:15:29.905Z,25.85
2022-12-22T05:18:00.586Z,25.86
2022-12-22T05:20:30.771Z,25.83
2022-12-22T05:23:02.791Z,25.81
2022-12-22T05:25:35.612Z,25.83
2022-12-22T05:28:05.426Z,25.79
2022-12-22T05:30:35.977Z,25.79
2022-12-22T05:33:06.721Z,25.77
2022-12-22T05:35:36.994Z,25.78
2022-12-22T05:38:08.553Z,25.75
2022-12-22T05:40:39.169Z,25.75
2022-12-22T05:43:11.086Z,25.78
2022-12-22T05:45:41.799Z,25.74
2022-12-22T05:48:12.537Z,25.73
2022-12-22T05:50:43.099Z,25.70
2022-12-22T05:53:13.619Z,25.72
2022-12-22T05:55:44.176Z,25.69
2022-12-22T05:58:14.494Z,25.72
2022-12-22T06:00:44.747Z,25.71
2022-12-22T06:03:16.281Z,25.71
2022-12-22T06:05:46.904Z,25.65
2022-12-22T06:08:17.717Z,25.67
2022-12-22T06:10:48.597Z,25.66
2022-12-22T06:13:18.999Z,25.67
2022-12-22T06:15:50.237Z,25.67
2022-12-22T06:18:22.235Z,25.63
2022-12-22T06:20:54.518Z,25.68
2022-12-22T06:23:28.927Z,25.64
2022-12-22T06:26:05.691Z,25.64
2022-12-22T06:28:36.299Z,25.68
2022-12-22T06:31:10.496Z,25.67
2022-12-22T06:33:41.935Z,25.69
2022-12-22T06:36:12.872Z,25.66
2022-12-22T06:38:43.309Z,25.66
2022-12-22T06:41:14.412Z,25.64
2022-12-22T06:43:45.478Z,25.63
2022-12-22T06:46:20.426Z,25.62
2022-12-22T06:48:51.908Z,25.62
2022-12-22T06:51:22.885Z,25.64
2022-12-22T06:53:55.169Z,25.61
2022-12-22T06:56:27.348Z,25.61
2022-12-22T06:58:57.965Z,25.63
2022-12-22T07:01:31.403Z,25.66
2022-12-22T07:04:02.140Z,25.59
2022-12-22T07:06:32.606Z,25.65
2022-12-22T07:09:03.023Z,25.62
2022-12-22T07:11:33.494Z,25.62
2022-12-22T07:14:04.023Z,25.60
2022-12-22T07:16:34.518Z,25.61
2022-12-22T07:19:04.974Z,25.59
2022-12-22T07:21:35.026Z,25.60
2022-12-22T07:24:05.537Z,25.59
2022-12-22T07:26:36.481Z,25.57
2022-12-22T07:29:06.698Z,25.60
2022-12-22T07:31:37.172Z,25.58
2022-12-22T07:34:08.156Z,25.61
2022-12-22T07:36:41.221Z,25.62
2022-12-22T07:39:12.276Z,25.58
2022-12-22T07:41:59.989Z,25.63
2022-12-22T07:44:30.369Z,25.61
2022-12-22T07:47:00.820Z,25.58
2022-12-22T07:49:48.993Z,25.59
2022-12-22T07:52:19.416Z,25.59
2022-12-22T07:54:51.265Z,25.57
2022-12-22T07:57:21.906Z,25.62
2022-12-22T07:59:52.059Z,25.63
2022-12-22T08:02:22.457Z,25.51
2022-12-22T08:04:53.177Z,25.51
2022-12-22T08:07:23.690Z,25.59
2022-12-22T08:09:54.590Z,25.59
2022-12-22T08:12:25.058Z,25.60
2022-12-22T08:14:55.808Z,25.61
2022-12-22T08:17:35.215Z,25.63
2022-12-22T08:20:05.824Z,25.59
2022-12-22T08:22:36.719Z,25.59
2022-12-22T08:25:08.129Z,25.61
2022-12-22T08:27:51.754Z,25.60
2022-12-22T08:30:22.224Z,25.60
2022-12-22T08:32:53.125Z,25.58
2022-12-22T08:35:23.404Z,25.58
2022-12-22T08:37:53.500Z,25.60
2022-12-22T08:40:26.626Z,25.60
2022-12-22T08:43:00.807Z,25.58
2022-12-22T08:45:31.407Z,25.60
2022-12-22T08:48:01.696Z,25.61
2022-12-22T08:50:32.715Z,25.59
2022-12-22T08:53:29.707Z,25.60
2022-12-22T08:55:46.001Z,25.60
2022-12-22T08:58:18.271Z,25.58
2022-12-22T09:00:49.693Z,25.62
2022-12-22T09:03:21.875Z,25.60
2022-12-22T09:05:52.484Z,25.60
2022-12-22T09:08:22.869Z,25.59
2022-12-22T09:10:53.502Z,25.61
2022-12-22T09:13:25.205Z,25.59
2022-12-22T09:15:55.682Z,25.58
2022-12-22T09:18:28.752Z,25.60
2022-12-22T09:21:00.650Z,25.60
2022-12-22T09:23:33.065Z,25.61
2022-12-22T09:26:04.097Z,25.62
2022-12-22T09:28:36.487Z,25.60
2022-12-22T09:31:06.937Z,25.61
2022-12-22T09:33:40.098Z,25.60
2022-12-22T09:36:14.266Z,25.60
2022-12-22T09:38:44.478Z,25.61
2022-12-22T09:41:34.088Z,25.62
2022-12-22T09:44:29.276Z,25.60
2022-12-22T09:47:00.571Z,25.62
2022-12-22T09:49:31.375Z,25.63
2022-12-22T09:52:03.255Z,25.67
2022-12-22T09:54:33.505Z,25.69
2022-12-22T09:57:07.292Z,25.69
2022-12-22T09:59:38.021Z,25.71
2022-12-22T10:02:19.951Z,25.75
2022-12-22T10:05:07.948Z,25.76
2022-12-22T10:07:41.980Z,25.76
2022-12-22T10:10:28.608Z,25.77
2022-12-22T10:13:00.850Z,25.77
2022-12-22T10:15:40.286Z,25.77
2022-12-22T10:18:16.131Z,25.78
2022-12-22T10:20:48.620Z,25.81
2022-12-22T10:23:27.810Z,25.79
2022-12-22T10:28:40.073Z,25.88
2022-12-22T10:31:33.132Z,25.88
2022-12-22T10:34:16.214Z,25.84
2022-12-22T10:36:55.335Z,25.88
2022-12-22T10:39:28.858Z,25.88
2022-12-22T10:42:01.808Z,25.86
2022-12-22T10:44:34.006Z,25.86
2022-12-22T10:47:15.459Z,25.88
2022-12-22T10:52:16.846Z,25.88
2022-12-22T10:54:47.848Z,25.91
2022-12-22T10:57:22.489Z,25.91
2022-12-22T11:00:03.075Z,25.88
2022-12-22T11:02:39.006Z,25.88
2022-12-22T11:05:14.314Z,25.92
2022-12-22T11:11:12.294Z,25.93
2022-12-22T11:14:12.477Z,25.83
2022-12-22T11:16:53.243Z,25.87
2022-12-22T11:19:43.834Z,25.78
2022-12-22T11:22:16.708Z,25.84
2022-12-22T11:24:55.443Z,25.81
2022-12-22T11:27:45.724Z,25.78
2022-12-22T11:30:22.765Z,25.75
2022-12-22T11:33:04.466Z,25.81
2022-12-22T11:35:55.408Z,25.75
2022-12-22T11:38:31.128Z,25.71
2022-12-22T11:41:24.120Z,25.63
2022-12-22T11:44:13.858Z,25.80
2022-12-22T11:46:55.629Z,25.86
2022-12-22T11:50:25.506Z,25.90
2022-12-22T11:52:37.170Z,25.97
2022-12-22T11:55:49.630Z,26.14
2022-12-22T11:58:22.878Z,26.41
2022-12-22T12:01:32.309Z,26.61
2022-12-22T12:04:25.026Z,26.72
2022-12-22T12:07:33.446Z,26.81
2022-12-22T12:13:37.443Z,26.91
2022-12-22T12:16:26.389Z,26.93
2022-12-22T12:25:59.481Z,26.92
2022-12-22T12:39:08.476Z,26.80
2022-12-22T12:44:39.058Z,26.69
2022-12-22T12:47:36.797Z,26.66
2022-12-22T12:54:09.337Z,26.56
2022-12-22T12:57:20.314Z,26.49
2022-12-22T13:00:02.783Z,26.43
2022-12-22T13:02:42.919Z,26.40
2022-12-22T13:08:33.698Z,26.38
2022-12-22T13:14:07.690Z,26.24
2022-12-22T13:16:41.797Z,26.14
2022-12-22T13:19:19.330Z,26.14
2022-12-22T13:21:55.412Z,26.11
2022-12-22T13:24:31.113Z,26.05
2022-12-22T13:27:07.770Z,26.02
2022-12-22T13:32:31.769Z,25.89
2022-12-22T13:35:30.514Z,25.88
2022-12-22T13:37:45.385Z,25.84
2022-12-22T13:40:20.793Z,25.79
2022-12-22T13:43:05.593Z,25.74
2022-12-22T13:45:46.794Z,25.69
2022-12-22T13:48:21.897Z,25.62
2022-12-22T13:50:56.909Z,25.53
2022-12-22T13:56:18.431Z,25.42
2022-12-22T13:58:48.658Z,25.36
2022-12-22T14:01:20.081Z,25.32
2022-12-22T14:04:01.816Z,25.26
2022-12-22T14:06:41.888Z,25.21
2022-12-22T14:09:14.397Z,25.18
2022-12-22T14:11:52.190Z,25.12
2022-12-22T14:14:26.122Z,25.08
2022-12-22T14:16:58.347Z,25.06
2022-12-22T14:19:29.007Z,25.01
2022-12-22T14:22:04.763Z,24.99
2022-12-22T14:24:38.722Z,24.93
2022-12-22T14:27:09.297Z,24.90
2022-12-22T14:29:39.964Z,24.83
2022-12-22T14:32:11.176Z,24.78
2022-12-22T14:34:42.159Z,24.70
2022-12-22T14:37:13.136Z,24.67
2022-12-22T14:39:44.104Z,24.65
2022-12-22T14:42:18.400Z,24.63
2022-12-22T14:44:48.979Z,24.56
2022-12-22T14:47:20.297Z,24.48
2022-12-22T14:50:07.906Z,24.43
2022-12-22T14:52:55.243Z,24.36
2022-12-22T14:55:51.939Z,24.37
2022-12-22T14:58:31.621Z,24.33
2022-12-22T15:01:20.718Z,24.29
2022-12-22T15:04:08.400Z,24.20
2022-12-22T15:06:40.775Z,24.13
2022-12-22T15:09:17.032Z,24.05
2022-12-22T15:11:52.163Z,24.01
2022-12-22T15:14:24.519Z,23.97
2022-12-22T15:16:58.929Z,23.96
2022-12-22T15:19:30.847Z,23.90
2022-12-22T15:22:01.128Z,23.80
2022-12-22T15:24:31.400Z,23.74
2022-12-22T15:27:01.458Z,23.72
2022-12-22T15:29:31.711Z,23.69
2022-12-22T15:32:12.476Z,23.69
2022-12-22T15:34:43.155Z,23.68
2022-12-22T15:37:14.664Z,23.63
2022-12-22T15:39:45.104Z,23.56
2022-12-22T15:42:15.719Z,23.53
2022-12-22T15:44:46.364Z,23.48
2022-12-22T15:47:16.526Z,23.45
2022-12-22T15:49:47.021Z,23.41
2022-12-22T15:52:18.277Z,23.40
2022-12-22T15:54:48.414Z,23.38
2022-12-22T15:57:18.733Z,23.34
2022-12-22T15:59:49.147Z,23.35
2022-12-22T16:02:19.719Z,23.34
2022-12-22T16:04:50.034Z,23.41
2022-12-22T16:07:20.592Z,23.41
2022-12-22T16:09:50.660Z,23.24
2022-12-22T16:12:21.267Z,23.19
2022-12-22T16:14:53.890Z,23.15
2022-12-22T16:17:25.984Z,23.12
2022-12-22T16:19:56.032Z,23.09
2022-12-22T16:22:36.733Z,23.06
2022-12-22T16:25:08.445Z,23.03
2022-12-22T16:27:41.909Z,23.02
2022-12-22T16:30:24.399Z,22.96
2022-12-22T16:32:54.700Z,22.94
2022-12-22T16:35:27.567Z,22.88
2022-12-22T16:38:01.065Z,22.92
2022-12-22T16:40:31.056Z,22.92
2022-12-22T16:45:53.729Z,21.83
2022-12-22T16:48:44.348Z,21.61
2022-12-22T16:51:27.338Z,21.63
2022-12-22T16:54:05.098Z,21.66
2022-12-22T16:56:35.929Z,21.33
2022-12-22T16:59:13.355Z,21.80
2022-12-22T17:01:55.265Z,21.80
2022-12-22T17:04:27.807Z,21.89
2022-12-22T17:06:58.037Z,21.89
2022-12-22T17:09:34.203Z,21.88
2022-12-22T17:12:04.354Z,21.91
2022-12-22T17:14:39.677Z,21.92
2022-12-22T17:17:12.530Z,22.00
2022-12-22T17:19:43.403Z,21.89
2022-12-22T17:22:33.925Z,22.17
2022-12-22T17:27:56.263Z,21.97
2022-12-22T17:30:27.555Z,21.73
2022-12-22T17:32:57.958Z,21.63
2022-12-22T17:35:29.890Z,21.64
2022-12-22T17:38:00.503Z,21.66
2022-12-22T17:40:32.641Z,21.84
2022-12-22T17:43:03.021Z,21.91
2022-12-22T17:45:33.057Z,21.91
2022-12-22T17:48:03.205Z,21.87
2022-12-22T17:50:33.552Z,21.96
2022-12-22T17:53:04.252Z,22.02
2022-12-22T17:56:07.177Z,22.14
2022-12-22T17:58:06.253Z,22.14
2022-12-22T18:00:36.345Z,22.30
2022-12-22T18:03:07.132Z,22.07
2022-12-22T18:05:40.405Z,22.00
2022-12-22T18:08:13.442Z,21.92
2022-12-22T18:10:44.833Z,21.95
2022-12-22T18:13:23.575Z,21.73
2022-12-22T18:15:54.290Z,21.70
2022-12-22T18:18:27.065Z,21.74
2022-12-22T18:21:06.385Z,21.95
2022-12-22T18:23:33.819Z,21.54
2022-12-22T18:26:04.235Z,21.77
2022-12-22T18:28:34.496Z,21.92
2022-12-22T18:31:04.747Z,21.82
2022-12-22T18:33:35.025Z,21.81
2022-12-22T18:36:05.475Z,21.76
2022-12-22T18:38:37.151Z,21.50
2022-12-22T18:41:07.806Z,21.79
2022-12-22T18:43:38.408Z,21.98
2022-12-22T18:46:09.992Z,22.04
2022-12-22T18:48:40.158Z,21.61
2022-12-22T18:51:14.281Z,21.32
2022-12-22T18:53:45.145Z,21.51
2022-12-22T18:56:16.256Z,21.39
2022-12-22T18:58:47.334Z,21.19
2022-12-22T19:01:20.061Z,21.34
2022-12-22T19:03:50.599Z,21.42
2022-12-22T19:06:22.257Z,21.32
2022-12-22T19:08:52.779Z,21.23
2022-12-22T19:11:31.147Z,21.37
2022-12-22T19:14:01.630Z,21.44
2022-12-22T19:16:32.014Z,21.45
2022-12-22T19:19:02.436Z,21.31
2022-12-22T19:21:32.833Z,21.55
2022-12-22T19:24:03.196Z,21.42
2022-12-22T19:26:33.467Z,21.46
2022-12-22T19:29:03.818Z,21.60
2022-12-22T19:31:35.351Z,21.44
2022-12-22T19:34:09.518Z,21.33
2022-12-22T19:36:39.974Z,21.23
2022-12-22T19:39:10.387Z,21.56
2022-12-22T19:41:48.394Z,21.36
2022-12-22T19:44:31.787Z,21.55
2022-12-22T19:47:01.877Z,21.38
2022-12-22T19:49:32.521Z,21.43
2022-12-22T19:52:02.798Z,21.25
2022-12-22T19:54:33.827Z,21.26
2022-12-22T19:57:06.286Z,21.15
2022-12-22T19:59:41.624Z,21.14
2022-12-22T20:02:34.280Z,21.17
2022-12-22T20:05:10.052Z,21.32
2022-12-22T20:07:38.151Z,21.09
2022-12-22T20:10:11.745Z,21.10
2022-12-22T20:12:43.407Z,20.89
2022-12-22T20:15:25.196Z,21.29
2022-12-22T20:17:55.887Z,21.14
2022-12-22T20:20:38.794Z,21.40
2022-12-22T20:23:17.000Z,21.12
2022-12-22T20:25:59.485Z,21.30
2022-12-22T20:28:31.742Z,20.95
2022-12-22T20:31:03.491Z,21.04
2022-12-22T20:33:34.474Z,20.98
2022-12-22T20:36:04.765Z,20.77
2022-12-22T20:38:39.341Z,20.92
2022-12-22T20:41:10.608Z,21.00
2022-12-22T20:43:40.672Z,21.04
2022-12-22T20:46:19.490Z,20.79
2022-12-22T20:48:52.673Z,20.93
2022-12-22T20:51:22.948Z,20.92
2022-12-22T20:53:53.179Z,21.00
2022-12-22T20:56:31.085Z,21.11
2022-12-22T20:59:01.690Z,20.94
2022-12-22T21:01:31.934Z,20.96
2022-12-22T21:04:02.451Z,20.97
2022-12-22T21:06:34.517Z,20.80
2022-12-22T21:09:04.900Z,20.70
2022-12-22T21:11:37.104Z,20.67
2022-12-22T21:14:07.302Z,20.83
2022-12-22T21:16:37.566Z,20.82
2022-12-22T21:19:11.088Z,20.85
2022-12-22T21:21:41.448Z,20.92
2022-12-22T21:24:12.488Z,20.58
2022-12-22T21:26:44.683Z,20.42
2022-12-22T21:29:21.419Z,20.29
2022-12-22T21:31:51.690Z,20.68
2022-12-22T21:34:21.892Z,20.68
2022-12-22T21:36:53.522Z,20.61
2022-12-22T21:39:34.374Z,20.54
2022-12-22T21:42:08.529Z,20.48
2022-12-22T21:44:38.724Z,20.56
2022-12-22T21:47:08.961Z,20.72
2022-12-22T21:49:39.578Z,20.91
2022-12-22T21:52:10.043Z,20.87
2022-12-22T21:54:40.188Z,20.90
2022-12-22T21:57:13.533Z,20.91
2022-12-22T21:59:44.767Z,20.82
2022-12-22T22:02:20.522Z,20.77
2022-12-22T22:04:54.973Z,20.74
2022-12-22T22:07:23.208Z,20.67
2022-12-22T22:09:53.363Z,20.62
2022-12-22T22:12:37.370Z,20.77
2022-12-22T22:15:07.198Z,20.73
2022-12-22T22:17:37.921Z,20.63
2022-12-22T22:20:09.205Z,20.74
2022-12-22T22:22:40.018Z,20.99
2022-12-22T22:25:11.214Z,21.03
2022-12-22T22:27:52.835Z,21.04
2022-12-22T22:30:26.062Z,21.14
2022-12-22T22:32:56.303Z,20.89
2022-12-22T22:35:28.065Z,20.58
2022-12-22T22:38:01.093Z,20.42
2022-12-22T22:40:31.501Z,20.22
2022-12-22T22:43:01.736Z,20.08
2022-12-22T22:45:39.955Z,20.19
2022-12-22T22:48:11.517Z,20.04
2022-12-22T22:50:45.854Z,20.36
2022-12-22T22:53:20.831Z,20.55
2022-12-22T22:55:51.138Z,20.57
2022-12-22T22:58:22.131Z,20.45
2022-12-22T23:00:52.817Z,20.43
2022-12-22T23:03:24.047Z,20.38
2022-12-22T23:05:54.598Z,20.18
2022-12-22T23:08:34.863Z,20.65
2022-12-22T23:11:05.224Z,20.64
2022-12-22T23:13:35.852Z,20.60
2022-12-22T23:16:06.649Z,20.30
2022-12-22T23:18:36.921Z,20.38
2022-12-22T23:21:07.940Z,20.18
2022-12-22T23:23:38.123Z,20.38
2022-12-22T23:26:10.960Z,20.12
2022-12-22T23:28:42.925Z,20.01
2022-12-22T23:31:13.819Z,20.07
2022-12-22T23:33:44.759Z,19.98
2022-12-22T23:36:15.869Z,20.29
2022-12-22T23:38:46.921Z,20.24
2022-12-22T23:41:17.372Z,20.16
2022-12-22T23:43:47.949Z,20.26
2022-12-22T23:46:18.848Z,20.46
2022-12-22T23:48:54.602Z,20.46
2022-12-22T23:51:26.305Z,21.06
2022-12-22T23:53:57.614Z,20.89
2022-12-22T23:56:28.179Z,20.77
2022-12-22T23:58:58.498Z,20.78
